Winter Springs, Florida
Current Conditions -  °F | °C
As of 8:53 PM on Sunday 21 Dec 2014 (Local Time) from KSFB Reporting Station
Broken Clouds Broken Clouds  
Wind Chill: 67°   Ceiling: 11000
Heat Index: 67°   Visibility: 8mi
Dew Point: 66°   Wind: 6mph
Humidity: 97%   Direction: 330°NNW
Pressure: 30.06"   Gusts: NA
Location:  28.7°N, 81.26°W
Report Text: KSFB 220153Z 33005KT 8SM BKN110 19/19 A3006 RMK AO2 RAE53 SLP176 P0015 T01940189
Loading
Personal Weather Stations






























Interactive Weather Map New forecast layout! Learn more

10-Day Weather Forecast

Advertisements
Track Severe Weather on mobile